createdAt,value
2018-05-23T00:01:41.201Z,101025.54
2018-05-23T00:04:07.178Z,101022.42
2018-05-23T00:06:33.144Z,101023.61
2018-05-23T00:08:59.104Z,101031.38
2018-05-23T00:11:25.068Z,101028.27
2018-05-23T00:13:51.029Z,101030.70
2018-05-23T00:16:16.977Z,101031.06
2018-05-23T00:18:42.929Z,101027.09
2018-05-23T00:21:08.880Z,101029.04
2018-05-23T00:23:34.855Z,101025.67
2018-05-23T00:26:00.804Z,101027.77
2018-05-23T00:28:26.772Z,101030.50
2018-05-23T00:30:52.722Z,101030.06
2018-05-23T00:33:18.676Z,101035.80
2018-05-23T00:35:44.765Z,101031.97
2018-05-23T00:38:10.743Z,101037.91
2018-05-23T00:40:36.692Z,101038.68
2018-05-23T00:43:02.641Z,101040.83
2018-05-23T00:45:28.604Z,101038.00
2018-05-23T00:47:54.558Z,101041.06
2018-05-23T00:50:20.526Z,101036.08
2018-05-23T00:52:46.500Z,101035.16
2018-05-23T00:55:12.460Z,101043.89
2018-05-23T00:57:38.444Z,101041.73
2018-05-23T01:00:04.384Z,101040.06
2018-05-23T01:02:30.351Z,101045.34
2018-05-23T01:04:56.316Z,101042.70
2018-05-23T01:07:22.268Z,101040.96
2018-05-23T01:09:48.212Z,101039.42
2018-05-23T01:12:14.160Z,101037.50
2018-05-23T01:14:40.123Z,101034.53
2018-05-23T01:17:06.075Z,101036.72
2018-05-23T01:19:32.053Z,101032.70
2018-05-23T01:21:57.997Z,101037.18
2018-05-23T01:24:23.991Z,101032.61
2018-05-23T01:26:49.960Z,101031.97
2018-05-23T01:29:17.025Z,101031.97
2018-05-23T01:31:42.981Z,101038.68
2018-05-23T01:34:08.924Z,101032.20
2018-05-23T01:36:34.895Z,101028.14
2018-05-23T01:39:00.862Z,101028.64
2018-05-23T01:41:26.820Z,101020.28
2018-05-23T01:43:52.899Z,101018.77
2018-05-23T01:46:18.871Z,101020.05
2018-05-23T01:48:44.841Z,101024.89
2018-05-23T01:53:47.222Z,101025.95
2018-05-23T01:56:13.200Z,101029.96
2018-05-23T01:58:39.180Z,101030.78
2018-05-23T02:01:05.133Z,101034.80
2018-05-23T02:03:31.084Z,101036.77
2018-05-23T02:05:57.048Z,101033.15
2018-05-23T02:08:23.002Z,101029.09
2018-05-23T02:10:48.975Z,101034.30
2018-05-23T02:13:14.927Z,101029.32
2018-05-23T02:15:40.917Z,101029.55
2018-05-23T02:18:06.863Z,101034.16
2018-05-23T02:20:32.855Z,101036.17
2018-05-23T02:22:58.810Z,101041.47
2018-05-23T02:25:24.760Z,101039.47
2018-05-23T02:27:50.713Z,101038.95
2018-05-23T02:30:16.678Z,101039.64
2018-05-23T02:32:42.633Z,101038.77
2018-05-23T02:35:08.588Z,101043.11
2018-05-23T02:37:34.545Z,101050.52
2018-05-23T02:40:00.577Z,101049.20
2018-05-23T02:42:26.529Z,101039.55
2018-05-23T02:44:52.488Z,101040.00
2018-05-23T02:47:18.432Z,101042.28
2018-05-23T02:49:44.440Z,101035.44
2018-05-23T02:52:10.434Z,101036.36
2018-05-23T02:54:36.404Z,101042.42
2018-05-23T02:57:02.356Z,101049.19
2018-05-23T02:59:28.308Z,101053.44
2018-05-23T03:01:54.256Z,101055.90
2018-05-23T03:04:20.211Z,101064.81
2018-05-23T03:06:46.178Z,101065.90
2018-05-23T03:09:12.125Z,101063.67
2018-05-23T03:11:38.085Z,101061.57
2018-05-23T03:14:04.045Z,101060.61
2018-05-23T03:16:30.095Z,101059.19
2018-05-23T03:18:56.066Z,101057.00
2018-05-23T03:21:22.039Z,101060.61
2018-05-23T03:23:48.009Z,101067.55
2018-05-23T03:26:13.967Z,101072.98
2018-05-23T03:28:39.929Z,101073.31
2018-05-23T03:31:05.877Z,101075.73
2018-05-23T03:33:33.919Z,101079.57
2018-05-23T03:35:59.911Z,101078.01
2018-05-23T03:38:25.867Z,101076.91
2018-05-23T03:40:51.855Z,101076.33
2018-05-23T03:43:17.819Z,101073.55
2018-05-23T03:45:43.796Z,101071.34
2018-05-23T03:48:09.740Z,101070.75
2018-05-23T03:50:35.717Z,101073.77
2018-05-23T03:53:01.674Z,101071.80
2018-05-23T03:55:27.621Z,101072.02
2018-05-23T03:57:54.617Z,101073.27
2018-05-23T04:00:20.577Z,101076.59
2018-05-23T04:02:46.547Z,101079.89
2018-05-23T04:05:12.499Z,101078.38
2018-05-23T04:07:38.453Z,101082.04
2018-05-23T04:10:04.415Z,101082.21
2018-05-23T04:12:30.356Z,101091.17
2018-05-23T04:14:56.301Z,101090.94
2018-05-23T04:17:22.347Z,101096.20
2018-05-23T04:19:48.323Z,101099.03
2018-05-23T04:22:14.329Z,101096.42
2018-05-23T04:24:40.291Z,101097.87
2018-05-23T04:27:09.265Z,101105.38
2018-05-23T04:29:35.232Z,101106.42
2018-05-23T04:32:01.599Z,101109.30
2018-05-23T04:34:27.666Z,101110.63
2018-05-23T04:36:53.796Z,101107.58
2018-05-23T04:39:19.765Z,101106.84
2018-05-23T04:41:45.708Z,101111.86
2018-05-23T04:44:11.745Z,101116.66
2018-05-23T04:46:37.699Z,101114.83
2018-05-23T04:49:03.668Z,101115.09
2018-05-23T04:51:29.621Z,101119.08
2018-05-23T04:53:55.572Z,101115.84
2018-05-23T04:56:21.535Z,101125.39
2018-05-23T04:58:47.493Z,101127.89
2018-05-23T05:01:13.484Z,101129.13
2018-05-23T05:03:39.447Z,101133.28
2018-05-23T05:06:05.444Z,101133.59
2018-05-23T05:08:31.399Z,101143.24
2018-05-23T05:10:57.367Z,101136.70
2018-05-23T05:13:23.328Z,101139.64
2018-05-23T05:15:49.321Z,101140.78
2018-05-23T05:18:15.268Z,101144.24
2018-05-23T05:20:41.311Z,101148.73
2018-05-23T05:23:07.271Z,101154.44
2018-05-23T05:25:33.262Z,101157.31
2018-05-23T05:27:59.220Z,101164.08
2018-05-23T05:30:25.171Z,101166.59
2018-05-23T05:32:54.290Z,101172.06
2018-05-23T05:35:20.229Z,101175.34
2018-05-23T05:37:46.202Z,101185.31
2018-05-23T05:40:12.168Z,101190.83
2018-05-23T05:42:38.156Z,101191.53
2018-05-23T05:45:04.120Z,101191.84
2018-05-23T05:47:31.161Z,101193.89
2018-05-23T05:49:57.116Z,101199.14
2018-05-23T05:52:23.083Z,101201.88
2018-05-23T05:54:49.042Z,101202.95
2018-05-23T05:57:14.996Z,101211.03
2018-05-23T05:59:40.980Z,101215.38
2018-05-23T06:02:07.033Z,101217.53
2018-05-23T06:04:33.062Z,101225.06
2018-05-23T06:06:59.020Z,101226.55
2018-05-23T06:09:25.070Z,101222.73
2018-05-23T06:11:51.016Z,101224.78
2018-05-23T06:14:16.976Z,101231.73
2018-05-23T06:16:43.068Z,101229.91
2018-05-23T06:19:09.020Z,101231.33
2018-05-23T06:21:35.101Z,101234.60
2018-05-23T06:24:02.121Z,101236.61
2018-05-23T06:26:28.144Z,101226.43
2018-05-23T06:28:54.184Z,101230.97
2018-05-23T06:31:20.226Z,101224.97
2018-05-23T06:33:46.181Z,101232.36
2018-05-23T06:36:12.259Z,101232.83
2018-05-23T06:38:38.215Z,101236.23
2018-05-23T06:41:04.238Z,101239.81
2018-05-23T06:43:30.305Z,101242.88
2018-05-23T06:45:56.205Z,101249.81
2018-05-23T06:48:22.173Z,101250.44
2018-05-23T06:50:48.118Z,101249.76
2018-05-23T06:53:14.230Z,101249.76
2018-05-23T06:55:40.206Z,101251.85
2018-05-23T06:58:08.179Z,101249.48
2018-05-23T07:00:34.160Z,101252.22
2018-05-23T07:03:00.125Z,101251.36
2018-05-23T07:05:26.108Z,101253.13
2018-05-23T07:07:52.073Z,101261.17
2018-05-23T07:10:18.031Z,101260.93
2018-05-23T07:12:44.113Z,101258.70
2018-05-23T07:15:10.064Z,101264.36
2018-05-23T07:17:36.097Z,101269.24
2018-05-23T07:20:02.057Z,101269.57
2018-05-23T07:22:28.030Z,101275.56
2018-05-23T07:24:54.024Z,101275.36
2018-05-23T07:27:20.012Z,101275.48
2018-05-23T07:29:45.970Z,101278.78
2018-05-23T07:32:11.959Z,101280.45
2018-05-23T07:34:37.917Z,101285.41
2018-05-23T07:37:03.875Z,101279.77
2018-05-23T07:39:29.828Z,101277.84
2018-05-23T07:41:55.802Z,101276.98
2018-05-23T07:44:21.755Z,101277.31
2018-05-23T07:46:47.704Z,101286.66
2018-05-23T07:49:13.670Z,101279.11
2018-05-23T07:51:39.628Z,101280.58
2018-05-23T07:54:05.621Z,101284.81
2018-05-23T07:56:31.604Z,101284.89
2018-05-23T07:58:57.557Z,101286.66
2018-05-23T08:01:23.524Z,101283.03
2018-05-23T08:03:49.485Z,101282.76
2018-05-23T08:06:15.508Z,101291.70
2018-05-23T08:08:41.471Z,101289.55
2018-05-23T08:11:07.417Z,101294.37
2018-05-23T08:13:33.386Z,101293.38
2018-05-23T08:15:59.349Z,101299.90
2018-05-23T08:18:25.314Z,101299.48
2018-05-23T08:20:51.309Z,101306.44
2018-05-23T08:23:17.271Z,101300.84
2018-05-23T08:25:43.221Z,101305.94
2018-05-23T08:28:09.182Z,101304.70
2018-05-23T08:30:35.149Z,101301.75
2018-05-23T08:33:01.136Z,101305.89
2018-05-23T08:35:27.204Z,101305.69
2018-05-23T08:37:53.195Z,101304.84
2018-05-23T08:40:19.170Z,101309.27
2018-05-23T08:42:45.176Z,101304.03
2018-05-23T08:45:11.132Z,101299.51
2018-05-23T08:47:37.106Z,101299.70
2018-05-23T08:50:03.162Z,101298.70
2018-05-23T08:52:29.124Z,101304.89
2018-05-23T08:54:55.095Z,101303.32
2018-05-23T08:57:21.054Z,101307.63
2018-05-23T08:59:47.092Z,101305.25
2018-05-23T09:02:13.115Z,101308.28
2018-05-23T09:04:39.069Z,101300.95
2018-05-23T09:07:05.109Z,101310.00
2018-05-23T09:09:31.066Z,101312.20
2018-05-23T09:11:57.028Z,101307.55
2018-05-23T09:14:23.109Z,101315.66
2018-05-23T09:16:49.076Z,101313.86
2018-05-23T09:19:15.038Z,101317.45
2018-05-23T09:21:41.022Z,101322.09
2018-05-23T09:24:06.975Z,101325.17
2018-05-23T09:26:32.972Z,101328.58
2018-05-23T09:28:58.924Z,101330.34
2018-05-23T09:31:28.147Z,101331.59
2018-05-23T09:33:54.117Z,101332.22
2018-05-23T09:36:20.090Z,101333.60
2018-05-23T09:38:46.070Z,101331.22
2018-05-23T09:41:12.020Z,101333.55
2018-05-23T09:43:38.001Z,101338.92
2018-05-23T09:46:03.951Z,101340.91
2018-05-23T09:48:29.941Z,101339.15
2018-05-23T09:50:55.919Z,101342.77
2018-05-23T09:53:21.905Z,101343.28
2018-05-23T09:55:47.853Z,101346.21
2018-05-23T09:58:13.808Z,101338.05
2018-05-23T10:00:39.757Z,101336.39
2018-05-23T10:03:05.754Z,101336.16
2018-05-23T10:05:31.717Z,101344.09
2018-05-23T10:07:57.757Z,101349.39
2018-05-23T10:10:23.705Z,101349.00
2018-05-23T10:12:49.686Z,101351.98
2018-05-23T10:15:15.669Z,101351.70
2018-05-23T10:17:41.678Z,101351.30
2018-05-23T10:20:07.661Z,101351.34
2018-05-23T10:22:33.746Z,101346.95
2018-05-23T10:24:59.749Z,101348.25
2018-05-23T10:27:25.699Z,101355.76
2018-05-23T10:29:51.666Z,101358.41
2018-05-23T10:32:17.628Z,101365.01
2018-05-23T10:34:43.585Z,101372.33
2018-05-23T10:37:09.554Z,101375.05
2018-05-23T10:39:35.512Z,101377.10
2018-05-23T10:42:01.485Z,101379.09
2018-05-23T10:44:27.453Z,101383.62
2018-05-23T10:46:53.411Z,101385.98
2018-05-23T10:49:19.370Z,101383.01
2018-05-23T10:51:45.398Z,101384.77
2018-05-23T10:54:11.352Z,101393.00
2018-05-23T10:56:37.328Z,101395.92
2018-05-23T10:59:03.287Z,101401.28
2018-05-23T11:01:29.268Z,101395.23
2018-05-23T11:03:55.222Z,101403.17
2018-05-23T11:06:21.181Z,101410.90
2018-05-23T11:08:47.169Z,101413.02
2018-05-23T11:11:13.128Z,101412.45
2018-05-23T11:13:40.426Z,101414.11
2018-05-23T11:16:06.565Z,101421.98
2018-05-23T11:18:32.569Z,101410.91
2018-05-23T11:20:58.540Z,101416.05
2018-05-23T11:23:24.508Z,101422.67
2018-05-23T11:25:50.525Z,101424.78
2018-05-23T11:28:16.486Z,101425.52
2018-05-23T11:30:42.464Z,101420.72
2018-05-23T11:33:08.417Z,101426.16
2018-05-23T11:35:34.384Z,101425.91
2018-05-23T11:38:00.368Z,101424.52
2018-05-23T11:40:26.418Z,101426.16
2018-05-23T11:42:52.396Z,101427.56
2018-05-23T11:45:18.340Z,101422.45
2018-05-23T11:47:44.325Z,101425.91
2018-05-23T11:50:10.282Z,101419.89
2018-05-23T11:52:36.264Z,101424.83
2018-05-23T11:55:02.213Z,101420.30
2018-05-23T11:57:28.177Z,101415.00
2018-05-23T11:59:54.156Z,101418.55
2018-05-23T12:02:20.105Z,101418.09
2018-05-23T12:04:46.092Z,101413.64
2018-05-23T12:07:12.044Z,101409.41
2018-05-23T12:09:38.020Z,101412.04
2018-05-23T12:12:03.974Z,101411.52
2018-05-23T12:14:29.925Z,101412.38
2018-05-23T12:16:55.992Z,101407.38
2018-05-23T12:19:21.953Z,101410.73
2018-05-23T12:21:47.925Z,101409.16
2018-05-23T12:24:13.887Z,101404.07
2018-05-23T12:26:39.868Z,101397.64
2018-05-23T12:29:05.825Z,101400.91
2018-05-23T12:31:31.821Z,101401.67
2018-05-23T12:33:57.786Z,101401.34
2018-05-23T12:36:23.751Z,101401.55
2018-05-23T12:38:49.753Z,101393.20
2018-05-23T12:41:15.696Z,101392.78
2018-05-23T12:43:41.647Z,101387.48
2018-05-23T12:46:07.605Z,101385.64
2018-05-23T12:48:33.577Z,101378.75
2018-05-23T12:50:59.563Z,101381.12
2018-05-23T12:53:25.524Z,101382.25
2018-05-23T12:55:51.484Z,101375.36
2018-05-23T12:58:17.459Z,101376.25
2018-05-23T13:00:43.435Z,101372.83
2018-05-23T13:03:09.424Z,101366.61
2018-05-23T13:05:35.385Z,101366.36
2018-05-23T13:08:01.349Z,101352.73
2018-05-23T13:10:27.313Z,101355.58
2018-05-23T13:12:53.268Z,101357.70
2018-05-23T13:15:19.241Z,101344.86
2018-05-23T13:17:45.207Z,101354.47
2018-05-23T13:20:11.176Z,101351.92
2018-05-23T13:22:37.124Z,101344.56
2018-05-23T13:25:03.132Z,101341.85
2018-05-23T13:27:29.081Z,101335.72
2018-05-23T13:29:55.040Z,101336.11
2018-05-23T13:32:21.010Z,101337.41
2018-05-23T13:34:46.979Z,101334.56
2018-05-23T13:37:12.996Z,101336.31
2018-05-23T13:39:38.946Z,101337.66
2018-05-23T13:42:04.920Z,101337.16
2018-05-23T13:44:30.890Z,101334.42
2018-05-23T13:46:56.857Z,101343.04
2018-05-23T13:49:22.814Z,101332.36
2018-05-23T13:51:48.789Z,101331.86
2018-05-23T13:54:14.750Z,101329.70
2018-05-23T13:56:40.714Z,101329.88
2018-05-23T13:59:06.718Z,101319.30
2018-05-23T14:01:32.664Z,101318.28
2018-05-23T14:03:58.648Z,101314.80
2018-05-23T14:06:24.620Z,101312.98
2018-05-23T14:08:50.597Z,101308.78
2018-05-23T14:11:16.599Z,101310.11
2018-05-23T14:13:42.560Z,101311.95
2018-05-23T14:16:08.552Z,101312.67
2018-05-23T14:18:34.510Z,101314.83
2018-05-23T14:21:00.508Z,101312.29
2018-05-23T14:23:26.467Z,101310.05
2018-05-23T14:25:52.433Z,101311.96
2018-05-23T14:28:18.396Z,101302.73
2018-05-23T14:30:44.355Z,101304.42
2018-05-23T14:33:10.353Z,101299.73
2018-05-23T14:35:36.333Z,101301.19
2018-05-23T14:38:02.327Z,101297.87
2018-05-23T14:40:28.302Z,101296.14
2018-05-23T14:42:54.267Z,101293.44
2018-05-23T14:45:20.173Z,101290.92
2018-05-23T14:47:46.169Z,101291.89
2018-05-23T14:50:12.135Z,101293.66
2018-05-23T14:52:38.104Z,101288.00
2018-05-23T14:55:04.084Z,101295.26
2018-05-23T14:57:30.055Z,101291.23
2018-05-23T14:59:56.047Z,101287.72
2018-05-23T15:02:22.014Z,101284.05
2018-05-23T15:04:49.032Z,101287.58
2018-05-23T15:07:14.990Z,101290.09
2018-05-23T15:09:40.932Z,101284.11
2018-05-23T15:12:06.937Z,101283.26
2018-05-23T15:14:32.913Z,101288.39
2018-05-23T15:16:59.911Z,101286.18
2018-05-23T15:19:25.858Z,101293.02
2018-05-23T15:21:51.836Z,101284.66
2018-05-23T15:24:17.797Z,101291.23
2018-05-23T15:26:43.772Z,101285.67
2018-05-23T15:29:09.739Z,101280.96
2018-05-23T15:31:35.720Z,101279.96
2018-05-23T15:34:01.667Z,101279.13
2018-05-23T15:36:27.641Z,101276.86
2018-05-23T15:38:53.600Z,101271.95
2018-05-23T15:41:19.569Z,101278.09
2018-05-23T15:43:45.554Z,101273.15
2018-05-23T15:46:11.592Z,101276.38
2018-05-23T15:48:37.521Z,101279.99
2018-05-23T15:51:03.490Z,101272.32
2018-05-23T15:53:29.439Z,101272.81
2018-05-23T15:55:55.407Z,101279.72
2018-05-23T15:58:21.367Z,101275.61
2018-05-23T16:00:47.328Z,101272.05
2018-05-23T16:03:13.307Z,101268.05
2018-05-23T16:05:39.289Z,101266.91
2018-05-23T16:08:05.237Z,101272.45
2018-05-23T16:10:31.224Z,101270.08
2018-05-23T16:12:57.195Z,101267.20
2018-05-23T16:15:24.207Z,101268.20
2018-05-23T16:17:50.157Z,101267.93
2018-05-23T16:20:16.215Z,101262.33
2018-05-23T16:22:42.196Z,101260.03
2018-05-23T16:25:08.161Z,101271.59
2018-05-23T16:27:34.199Z,101260.45
2018-05-23T16:30:00.144Z,101257.25
2018-05-23T16:32:26.109Z,101261.95
2018-05-23T16:34:52.103Z,101253.46
2018-05-23T16:37:18.088Z,101256.20
2018-05-23T16:39:44.056Z,101259.20
2018-05-23T16:42:10.070Z,101260.52
2018-05-23T16:44:36.046Z,101261.20
2018-05-23T16:47:02.026Z,101258.07
2018-05-23T16:49:28.015Z,101257.66
2018-05-23T16:51:53.992Z,101256.66
2018-05-23T16:54:19.980Z,101253.09
2018-05-23T16:56:45.941Z,101255.03
2018-05-23T17:21:55.847Z,101281.42
2018-05-23T17:26:53.537Z,101288.38
2018-05-23T17:29:19.503Z,101284.31
2018-05-23T17:31:45.501Z,101289.92
2018-05-23T17:34:11.455Z,101284.31
2018-05-23T17:36:37.430Z,101283.58
2018-05-23T17:39:03.408Z,101283.72
2018-05-23T17:41:29.368Z,101282.86
2018-05-23T17:43:55.331Z,101283.91
2018-05-23T17:46:21.317Z,101278.61
2018-05-23T17:48:47.277Z,101281.12
2018-05-23T17:51:13.252Z,101283.72
2018-05-23T17:53:39.224Z,101274.23
2018-05-23T17:56:05.217Z,101278.17
2018-05-23T17:58:31.194Z,101272.39
2018-05-23T18:00:57.207Z,101270.19
2018-05-23T18:03:23.166Z,101278.36
2018-05-23T18:05:49.173Z,101281.06
2018-05-23T18:08:15.140Z,101270.43
2018-05-23T18:10:41.131Z,101282.48
2018-05-23T18:13:07.095Z,101282.34
2018-05-23T18:15:33.093Z,101280.59
2018-05-23T18:17:59.079Z,101289.56
2018-05-23T18:20:25.126Z,101292.72
2018-05-23T18:22:51.071Z,101295.36
2018-05-23T18:25:17.175Z,101291.63
2018-05-23T18:27:43.171Z,101293.34
2018-05-23T18:30:09.151Z,101294.70
2018-05-23T18:32:35.134Z,101291.22
2018-05-23T18:35:01.138Z,101288.95
2018-05-23T18:37:27.145Z,101293.81
2018-05-23T18:39:53.113Z,101303.83
2018-05-23T18:42:19.090Z,101295.55
2018-05-23T18:44:45.081Z,101299.67
2018-05-23T18:47:11.057Z,101295.20
2018-05-23T18:49:37.924Z,101291.69
2018-05-23T18:52:03.886Z,101298.48
2018-05-23T18:54:30.071Z,101298.98
2018-05-23T18:56:55.960Z,101304.80
2018-05-23T18:59:21.955Z,101302.70
2018-05-23T19:01:47.963Z,101308.34
2018-05-23T19:04:13.954Z,101306.42
2018-05-23T19:06:39.958Z,101312.09
2018-05-23T19:09:05.947Z,101308.95
2018-05-23T19:11:32.117Z,101311.68
2018-05-23T19:13:58.274Z,101309.17
2018-05-23T19:16:24.092Z,101310.41
2018-05-23T19:18:50.078Z,101315.47
2018-05-23T19:21:16.077Z,101317.45
2018-05-23T19:23:42.039Z,101324.13
2018-05-23T19:26:08.080Z,101330.95
2018-05-23T19:28:35.095Z,101330.59
2018-05-23T19:31:01.077Z,101334.02
2018-05-23T19:33:27.046Z,101338.63
2018-05-23T19:35:54.112Z,101344.84
2018-05-23T19:38:20.145Z,101345.16
2018-05-23T19:40:46.098Z,101349.64
2018-05-23T19:43:12.112Z,101349.97
2018-05-23T19:45:38.092Z,101348.45
2018-05-23T19:48:04.090Z,101354.33
2018-05-23T19:50:31.051Z,101351.13
2018-05-23T19:52:57.044Z,101359.97
2018-05-23T19:55:23.043Z,101370.45
2018-05-23T19:57:49.774Z,101371.06
2018-05-23T20:00:20.018Z,101370.09
2018-05-23T20:02:45.998Z,101368.98
2018-05-23T20:05:12.001Z,101375.80
2018-05-23T20:07:37.959Z,101380.77
2018-05-23T20:10:03.939Z,101380.05
2018-05-23T20:12:34.374Z,101385.16
2018-05-23T20:15:00.371Z,101380.99
2018-05-23T20:17:26.373Z,101381.36
2018-05-23T20:22:28.436Z,101384.27
2018-05-23T20:24:54.432Z,101380.60
2018-05-23T20:27:20.389Z,101379.05
2018-05-23T20:34:49.110Z,101378.12
2018-05-23T20:37:15.082Z,101381.70
2018-05-23T20:39:41.077Z,101380.16
2018-05-23T20:42:07.082Z,101385.80
2018-05-23T20:44:33.052Z,101384.03
2018-05-23T20:46:59.003Z,101383.31
2018-05-23T20:49:24.973Z,101386.96
2018-05-23T20:51:50.943Z,101392.28
2018-05-23T20:54:16.894Z,101393.11
2018-05-23T20:56:42.932Z,101391.48
2018-05-23T20:59:08.856Z,101400.30
2018-05-23T21:01:34.837Z,101402.08
2018-05-23T21:14:07.056Z,101404.95
2018-05-23T21:16:33.026Z,101409.20
2018-05-23T21:18:58.996Z,101406.14
2018-05-23T21:21:24.974Z,101413.33
2018-05-23T21:23:50.932Z,101413.77
2018-05-23T21:26:16.906Z,101412.03
2018-05-23T21:28:42.932Z,101421.88
2018-05-23T21:31:08.936Z,101416.23
2018-05-23T21:33:34.951Z,101420.43
2018-05-23T21:36:00.935Z,101411.62
2018-05-23T21:38:26.934Z,101411.45
2018-05-23T21:40:52.938Z,101415.56
2018-05-23T21:43:23.406Z,101421.98
2018-05-23T21:45:49.422Z,101416.56
2018-05-23T21:48:15.436Z,101415.70
2018-05-23T21:50:41.427Z,101417.63
2018-05-23T21:53:07.375Z,101420.09
2018-05-23T21:55:33.388Z,101417.78
2018-05-23T21:57:59.591Z,101417.34
2018-05-23T22:00:25.565Z,101419.77
2018-05-23T22:02:51.600Z,101416.02
2018-05-23T22:05:17.579Z,101420.82
2018-05-23T22:07:43.582Z,101415.41
2018-05-23T22:10:09.536Z,101416.00
2018-05-23T22:12:35.509Z,101423.95
2018-05-23T22:15:01.464Z,101416.27
2018-05-23T22:17:27.470Z,101419.11
2018-05-23T22:19:53.433Z,101420.94
2018-05-23T22:22:21.497Z,101424.02
2018-05-23T22:24:47.544Z,101424.14
2018-05-23T22:27:13.517Z,101419.41
2018-05-23T22:29:39.502Z,101423.45
2018-05-23T22:32:05.536Z,101420.73
2018-05-23T22:34:31.810Z,101419.83
2018-05-23T22:36:57.760Z,101417.26
2018-05-23T22:39:23.782Z,101420.66
2018-05-23T22:41:49.783Z,101416.84
2018-05-23T22:44:15.950Z,101420.45
2018-05-23T22:46:42.050Z,101417.05
2018-05-23T22:49:08.050Z,101415.72
2018-05-23T22:51:34.047Z,101418.22
2018-05-23T22:54:00.205Z,101421.78
2018-05-23T22:56:26.218Z,101421.34
2018-05-23T22:58:52.230Z,101423.25
2018-05-23T23:01:18.307Z,101421.38
2018-05-23T23:03:44.530Z,101419.77
2018-05-23T23:06:10.537Z,101424.08
2018-05-23T23:08:36.554Z,101421.34
2018-05-23T23:11:02.528Z,101425.08
2018-05-23T23:13:28.620Z,101419.47
2018-05-23T23:15:54.601Z,101426.64
2018-05-23T23:18:20.581Z,101419.69
2018-05-23T23:20:46.583Z,101413.37
2018-05-23T23:23:12.591Z,101415.63
2018-05-23T23:25:38.595Z,101410.97
2018-05-23T23:28:04.599Z,101406.30
2018-05-23T23:30:30.606Z,101408.48
2018-05-23T23:32:56.593Z,101406.53
2018-05-23T23:35:22.581Z,101404.56
2018-05-23T23:37:48.700Z,101405.40
2018-05-23T23:40:14.715Z,101400.17
2018-05-23T23:42:40.714Z,101403.02
2018-05-23T23:45:06.728Z,101408.48
2018-05-23T23:47:32.729Z,101406.16
2018-05-23T23:49:58.763Z,101404.70
2018-05-23T23:52:24.787Z,101403.58
2018-05-23T23:54:50.806Z,101400.13
2018-05-23T23:57:16.870Z,101398.52
2018-05-23T23:59:42.871Z,101400.17
